Flight Track Log - Related Links

Times and Time Zones

All times are in EDT time to prevent confusion due to time zone crossing. See the F-HPJG flight status page for this flight to view local times or setup timezone preferences in your user account.

Time Position Orientation Groundspeed Altitude Reporting Facility
EDT Latitude Longitude Course Direction KTS MPH feet Rate Location/Type
Mon 05:52:00 PM 47.5331 3.4957 157° South  Level Estimated
Mon 05:52:57 PM 48.9961 2.5626 157° South 169 194 200  Level FlightAware ADS-B
Mon 05:53:00 PM 47.4341 3.5568 157° South  Level Estimated
Mon 05:53:05 PM 48.9955 2.5527 265° West 168 193 400  Level FlightAware ADS-B
Mon 05:53:14 PM 48.9947 2.5427 263° West 167 192 600 1,500 Climbing FlightAware ADS-B
Mon 05:53:29 PM 48.9933 2.5244 263° West 170 196 1,000 1,500 Climbing FlightAware ADS-B
Mon 05:53:46 PM 48.9918 2.5046 263° West 169 194 1,400 1,273 Climbing FlightAware ADS-B
Mon 05:54:02 PM 48.9904 2.4866 263° West 168 193 1,700 1,200 Climbing FlightAware ADS-B
Mon 05:54:16 PM 48.9892 2.4697 264° West 172 198 2,000 1,448 Climbing FlightAware ADS-B
Mon 05:54:31 PM 48.9880 2.4513 264° West 174 200 2,400 1,826 Climbing FlightAware ADS-B
Mon 05:54:39 PM 48.9874 2.4413 265° West 174 200 2,700 2,087 Climbing FlightAware ADS-B
Mon 05:54:54 PM 48.9864 2.4226 265° West 172 198 3,200 1,500 Climbing FlightAware ADS-B
Mon 05:55:11 PM 48.9855 2.4029 266° West 179 206 3,500 1,000 Climbing FlightAware ADS-B
Mon 05:55:18 PM 48.9851 2.3927 267° West 194 223 3,600 857 Climbing FlightAware ADS-B
Mon 05:55:32 PM 48.9840 2.3728 265° West 212 244 3,800 818 Climbing FlightAware ADS-B
Mon 05:55:40 PM 48.9833 2.3606 265° West 223 257 3,900 783 Climbing FlightAware ADS-B
Mon 05:55:55 PM 48.9819 2.3359 265° West 244 281 4,100 1,111 Climbing FlightAware ADS-B
Mon 05:56:07 PM 48.9808 2.3146 266° West 259 298 4,400 1,667 Climbing FlightAware ADS-B
Mon 05:56:13 PM 48.9800 2.3051 263° West 259 298 4,600 2,000 Climbing FlightAware ADS-B
Mon 05:56:19 PM 48.9783 2.2947 256° West 259 298 4,800 2,400 Climbing FlightAware ADS-B
Mon 05:56:23 PM 48.9762 2.2871 247° West 259 298 5,000 3,333 Climbing FlightAware ADS-B
Mon 05:56:28 PM 48.9729 2.2787 239° Southwest 258 297 5,300 3,000 Climbing FlightAware ADS-B
Mon 05:56:37 PM 48.9667 2.2664 232° Southwest 260 299 5,700 2,308 Climbing FlightAware ADS-B
Mon 05:56:41 PM 48.9635 2.2613 226° Southwest 261 300 5,800 1,800 Climbing FlightAware ADS-B
Mon 05:56:47 PM 48.9580 2.2541 221° Southwest 267 307 6,000 1,385 Climbing FlightAware ADS-B
Mon 05:56:54 PM 48.9502 2.2453 216° Southwest 277 319 6,100 1,765 Climbing FlightAware ADS-B
Mon 05:57:04 PM 48.9399 2.2351 213° Southwest 281 323 6,500 3,000 Climbing FlightAware ADS-B
Mon 05:57:14 PM 48.9284 2.2249 210° Southwest 274 315 7,100 3,231 Climbing FlightAware ADS-B
Mon 05:57:30 PM 48.9113 2.2109 208° Southwest 273 314 7,900 2,800 Climbing FlightAware ADS-B
Mon 05:57:44 PM 48.8958 2.1985 208° Southwest 275 316 8,500 2,842 Climbing FlightAware ADS-B
Mon 05:57:49 PM 48.8890 2.1938 205° Southwest 274 315 8,800 3,000 Climbing FlightAware ADS-B
Mon 05:57:54 PM 48.8837 2.1911 198° South 274 315 9,000 2,250 Climbing FlightAware ADS-B
Mon 05:57:57 PM 48.8796 2.1896 194° South 275 316 9,100 1,714 Climbing FlightAware ADS-B
Mon 05:58:01 PM 48.8753 2.1886 189° South 276 318 9,200 1,875 Climbing FlightAware ADS-B
Mon 05:58:13 PM 48.8592 2.1878 182° South 284 327 9,600 2,000 Climbing FlightAware ADS-B
Mon 05:58:40 PM 48.8228 2.1900 178° South 296 341 10,500 1,655 Climbing FlightAware ADS-B
Mon 05:59:11 PM 48.7784 2.1957 175° South 324 373 11,200 1,791 Climbing FlightAware ADS-B
Mon 05:59:47 PM 48.7270 2.2020 175° South 331 381 12,500 2,609 Climbing FlightAware ADS-B
Mon 05:59:57 PM 48.7090 2.2029 178° South 327 376 13,200 2,267 Climbing FlightAware ADS-B
Mon 06:00:32 PM 48.6690 2.2050 178° South 334 384 14,200 2,080 Climbing FlightAware ADS-B
Mon 06:01:12 PM 48.6050 2.2120 176° South 344 396 15,800 2,612 Climbing FlightAware ADS-B
Mon 06:01:57 PM 48.5360 2.2190 176° South 335 386 17,900 1,765 Climbing FlightAware ADS-B
Mon 06:02:37 PM 48.4720 2.2340 171° South 373 429 18,300 640 Climbing FlightAware ADS-B
Mon 06:03:12 PM 48.4130 2.2500 170° South 402 463 18,700 1,200 Climbing FlightAware ADS-B
Mon 06:04:02 PM 48.3050 2.2760 171° South 424 488 20,000 1,667 Climbing FlightAware ADS-B
Mon 06:04:42 PM 48.2210 2.2970 171° South 436 502 21,200 2,188 Climbing FlightAware ADS-B
Mon 06:05:27 PM 48.1350 2.3260 167° South 430 495 23,100 2,047 Climbing FlightAware ADS-B
Mon 06:06:07 PM 48.0580 2.3560 165° South 436 502 24,100 1,500 Climbing FlightAware ADS-B
Mon 06:06:47 PM 47.9800 2.3870 165° South 443 510 25,100 1,482 Climbing FlightAware ADS-B
Mon 06:07:32 PM 47.8880 2.4220 166° South 450 518 26,200 1,341 Climbing FlightAware ADS-B
Mon 06:08:12 PM 47.8110 2.4530 165° South 457 526 27,000 1,341 Climbing FlightAware ADS-B
Mon 06:08:57 PM 47.7180 2.4890 165° South 459 528 28,100 1,341 Climbing FlightAware ADS-B
Mon 06:09:37 PM 47.6340 2.5220 165° South 463 533 28,900 1,350 Climbing FlightAware ADS-B
Mon 06:10:17 PM 47.5520 2.5530 166° South 460 529 29,900 2,047 Climbing FlightAware ADS-B
Mon 06:11:02 PM 47.4590 2.5890 165° South 442 509 31,800 1,694 Climbing FlightAware ADS-B
Mon 06:11:42 PM 47.3830 2.6180 166° South 448 516 32,300 1,059 Climbing FlightAware ADS-B
Mon 06:12:27 PM 47.2900 2.6530 166° South 446 513 33,300 1,482 Climbing FlightAware ADS-B
Mon 06:13:07 PM 47.2070 2.6850 165° South 437 503 34,400 1,575 Climbing FlightAware ADS-B
Mon 06:13:47 PM 47.1340 2.7130 165° South 426 490 35,400 1,482 Climbing FlightAware ADS-B
Mon 06:14:32 PM 47.0470 2.7460 166° South 416 479 36,500 1,129 Climbing FlightAware ADS-B
Mon 06:15:12 PM 46.9740 2.7730 166° South 414 476 37,000 353 Climbing FlightAware ADS-B
Mon 06:15:57 PM 46.8870 2.8060 165° South 425 489 37,000  Level FlightAware ADS-B
Mon 06:16:37 PM 46.8150 2.8330 166° South 427 491 37,000  Level FlightAware ADS-B
Mon 06:17:17 PM 46.7380 2.8620 166° South 427 491 37,000  Level FlightAware ADS-B
Mon 06:18:02 PM 46.6500 2.8940 166° South 424 488 37,000  Level FlightAware ADS-B
Mon 06:18:42 PM 46.5740 2.9230 165° South 421 484 37,000  Level FlightAware ADS-B
Mon 06:19:27 PM 46.4920 2.9530 166° South 422 486 37,000  Level FlightAware ADS-B
Mon 06:20:07 PM 46.4130 2.9820 166° South 426 490 37,000  Level FlightAware ADS-B
Mon 06:20:47 PM 46.3420 3.0080 166° South 425 489 37,000  Level FlightAware ADS-B
Mon 06:21:32 PM 46.2510 3.0420 166° South 426 490 37,000  Level FlightAware ADS-B
Mon 06:22:12 PM 46.1750 3.0690 166° South 427 491 37,000  Level FlightAware ADS-B
Mon 06:22:52 PM 46.0960 3.0980 166° South 432 497 37,000  Level FlightAware ADS-B
Mon 06:23:37 PM 46.0130 3.1280 166° South 433 498 37,000  Level FlightAware ADS-B
Mon 06:24:17 PM 45.9350 3.1570 166° South 431 496 37,000  Level FlightAware ADS-B
Mon 06:25:02 PM 45.8470 3.1890 166° South 432 497 37,000  Level FlightAware ADS-B
Mon 06:25:42 PM 45.7700 3.2160 166° South 430 495 37,000  Level FlightAware ADS-B
Mon 06:26:27 PM 45.6850 3.2470 166° South 428 493 37,000  Level FlightAware ADS-B
Mon 06:27:07 PM 45.6090 3.2740 166° South 429 494 37,000  Level FlightAware ADS-B
Mon 06:27:47 PM 45.5280 3.3030 166° South 427 491 37,000  Level FlightAware ADS-B
Mon 06:28:32 PM 45.4400 3.3340 166° South 424 488 37,000  Level FlightAware ADS-B
Mon 06:29:12 PM 45.3650 3.3610 166° South 422 486 37,000  Level FlightAware ADS-B
Mon 06:29:52 PM 45.2910 3.3870 166° South 418 481 37,000  Level FlightAware ADS-B
Mon 06:30:37 PM 45.2080 3.4160 166° South 416 479 37,000  Level FlightAware ADS-B
Mon 06:31:17 PM 45.1330 3.4430 166° South 411 473 37,000  Level FlightAware ADS-B
Mon 06:31:47 PM 45.0780 3.4620 166° South 410 472 37,000  Level FlightAware ADS-B
Mon 06:32:27 PM 45.0040 3.4880 166° South 411 473 37,000  Level FlightAware ADS-B
Mon 06:33:12 PM 44.9180 3.5180 166° South 412 474 37,000  Level FlightAware ADS-B
Mon 06:33:52 PM 44.8470 3.5430 166° South 411 473 37,000  Level FlightAware ADS-B
Mon 06:34:32 PM 44.7720 3.5690 166° South 411 473 37,000  Level FlightAware ADS-B
Mon 06:35:17 PM 44.6910 3.5970 166° South 414 476 37,000  Level FlightAware ADS-B
Mon 06:35:57 PM 44.6160 3.6230 166° South 416 479 37,000  Level FlightAware ADS-B
Mon 06:36:42 PM 44.5290 3.6530 166° South 422 486 37,000  Level FlightAware ADS-B
Mon 06:37:22 PM 44.4530 3.6790 166° South 418 481 37,000  Level FlightAware ADS-B
Mon 06:38:07 PM 44.3730 3.7060 166° South 410 472 37,000  Level FlightAware ADS-B
Mon 06:38:47 PM 44.2980 3.7320 166° South 409 471 37,000  Level FlightAware ADS-B
Mon 06:39:27 PM 44.2250 3.7570 166° South 411 473 37,000  Level FlightAware ADS-B
Mon 06:40:12 PM 44.1390 3.7860 166° South 414 476 37,000  Level FlightAware ADS-B
Mon 06:40:52 PM 44.0710 3.8150 163° South 421 484 37,000  Level FlightAware ADS-B
Mon 06:41:37 PM 43.9870 3.8560 161° South 429 494 37,000  Level FlightAware ADS-B
Mon 06:42:17 PM 43.9090 3.8940 161° South 432 497 37,000  Level FlightAware ADS-B
Mon 06:42:57 PM 43.8330 3.9300 161° South 430 495 37,000  Level FlightAware ADS-B
Mon 06:43:42 PM 43.7480 3.9720 160° South 426 490 37,000  Level FlightAware ADS-B
Mon 06:44:22 PM 43.6740 4.0070 161° South 422 486 37,000  Level FlightAware ADS-B
Mon 06:45:07 PM 43.5930 4.0460 161° South 421 484 37,000  Level FlightAware ADS-B
Mon 06:45:47 PM 43.5180 4.0820 161° South 423 487 37,000  Level FlightAware ADS-B
Mon 06:46:27 PM 43.4440 4.1180 161° South 426 490 37,000  Level FlightAware ADS-B
Mon 06:47:12 PM 43.3590 4.1580 161° South 428 493 37,000  Level FlightAware ADS-B
Mon 06:47:52 PM 43.2830 4.1940 161° South 430 495 37,000  Level FlightAware ADS-B
Mon 06:48:37 PM 43.2000 4.2330 161° South 429 494 37,000  Level FlightAware ADS-B
Mon 06:49:17 PM 43.1250 4.2690 161° South 429 494 37,000  Level FlightAware ADS-B
Mon 06:49:57 PM 43.0510 4.3040 161° South 430 495 37,000  Level FlightAware ADS-B
Mon 06:50:42 PM 42.9640 4.3450 161° South 431 496 37,000  Level FlightAware ADS-B
Mon 06:51:22 PM 42.8880 4.3800 161° South 430 495 37,000  Level FlightAware ADS-B
Mon 06:52:02 PM 42.8120 4.4160 161° South 430 495 37,000  Level FlightAware ADS-B
Mon 06:52:47 PM 42.7290 4.4540 161° South 434 499 37,000  Level FlightAware ADS-B
Mon 06:53:27 PM 42.6560 4.4880 161° South 437 503 37,000  Level FlightAware ADS-B
Mon 06:54:12 PM 42.5650 4.5300 161° South 440 506 37,000  Level FlightAware ADS-B
Mon 06:54:52 PM 42.4890 4.5660 161° South 441 507 37,000  Level FlightAware ADS-B
Mon 06:55:37 PM 42.4030 4.6050 161° South 441 507 37,000  Level FlightAware ADS-B
Mon 06:56:17 PM 42.3260 4.6410 161° South 439 505 37,000  Level FlightAware ADS-B
Mon 06:57:07 PM 42.2420 4.6790 161° South 438 504 37,000  Level FlightAware ADS-B
Mon 06:57:47 PM 42.1550 4.7190 161° South 438 504 37,000  Level FlightAware ADS-B
Mon 06:58:37 PM 42.0590 4.7630 161° South 432 497 37,000  Level FlightAware ADS-B
Mon 06:59:22 PM 41.9710 4.8030 161° South 429 494 37,000  Level FlightAware ADS-B
Mon 07:00:02 PM 41.8980 4.8360 161° South 429 494 37,000  Level FlightAware ADS-B
Mon 07:00:42 PM 41.8220 4.8700 162° South 428 493 37,000  Level FlightAware ADS-B
Mon 07:01:27 PM 41.7360 4.9090 161° South 427 491 37,000  Level FlightAware ADS-B
Mon 07:02:07 PM 41.6600 4.9430 162° South 427 491 37,000  Level FlightAware ADS-B
Mon 07:02:52 PM 41.5790 4.9790 162° South 428 493 37,000  Level FlightAware ADS-B
Mon 07:03:32 PM 41.5030 5.0130 161° South 428 493 37,000  Level FlightAware ADS-B
Mon 07:04:12 PM 41.4280 5.0470 161° South 426 490 37,000  Level FlightAware ADS-B
Mon 07:04:52 PM 41.3590 5.0780 161° South 427 491 37,000  Level FlightAware ADS-B
Mon 07:05:37 PM 41.2680 5.1180 162° South 430 495 37,000  Level FlightAware ADS-B
Mon 07:06:12 PM 41.2060 5.1450 162° South 431 496 37,000  Level FlightAware ADS-B
Mon 07:07:02 PM 41.1080 5.1890 161° South 438 504 37,000  Level FlightAware ADS-B
Mon 07:07:57 PM 41.0070 5.2340 161° South 439 505 37,000  Level FlightAware ADS-B
Mon 07:08:42 PM 40.9160 5.2730 162° South 436 502 37,000  Level FlightAware ADS-B
Mon 07:09:22 PM 40.8390 5.3070 162° South 434 499 37,000  Level FlightAware ADS-B
Mon 07:10:02 PM 40.7670 5.3380 162° South 433 498 37,000  Level FlightAware ADS-B
Mon 07:11:02 PM 40.6580 5.3870 161° South 432 497 37,000  Level FlightAware ADS-B
Mon 07:11:42 PM 40.5940 5.4160 161° South 432 497 37,000  Level FlightAware ADS-B
Mon 07:12:27 PM 40.5000 5.4540 163° South 430 495 37,000  Level FlightAware ADS-B
Mon 07:13:17 PM 40.4120 5.4930 161° South 429 494 37,000  Level FlightAware ADS-B
Mon 07:14:02 PM 40.3190 5.5320 162° South 425 489 37,000  Level FlightAware ADS-B
Mon 07:14:42 PM 40.2370 5.5670 162° South 426 490 37,000  Level FlightAware ADS-B
Mon 07:15:17 PM 40.1700 5.5960 162° South 426 490 37,000  Level FlightAware ADS-B
Mon 07:16:07 PM 40.0760 5.6360 162° South 425 489 37,000  Level FlightAware ADS-B
Mon 07:16:47 PM 40.0020 5.6680 162° South 426 490 37,000  Level FlightAware ADS-B
Mon 07:17:32 PM 39.9200 5.7030 162° South 426 490 37,000  Level FlightAware ADS-B
Mon 07:18:12 PM 39.8430 5.7360 162° South 427 491 37,000  Level FlightAware ADS-B
Mon 07:18:57 PM 39.7580 5.7710 162° South 423 487 37,000  Level FlightAware ADS-B
Mon 07:19:37 PM 39.6820 5.8030 162° South 437 503 37,000  Level FlightAware ADS-B
Mon 07:20:17 PM 39.6060 5.8360 162° South 437 503 37,000  Level FlightAware ADS-B
Mon 07:21:02 PM 39.5170 5.8730 162° South 425 489 37,000  Level FlightAware ADS-B
Mon 07:21:42 PM 39.4430 5.9040 162° South 424 488 37,000  Level FlightAware ADS-B
Mon 07:22:27 PM 39.3580 5.9390 162° South 424 488 37,000  Level FlightAware ADS-B
Mon 07:23:07 PM 39.2800 5.9720 162° South 422 486 37,000  Level FlightAware ADS-B
Mon 07:23:52 PM 39.1930 6.0080 162° South 424 488 37,000  Level FlightAware ADS-B
Mon 07:24:32 PM 39.1160 6.0250 170° South 423 487 37,000  Level FlightAware ADS-B
Mon 07:25:12 PM 39.0360 6.0420 171° South 425 489 37,000  Level FlightAware ADS-B
Mon 07:25:57 PM 38.9480 6.0610 170° South 428 493 37,000  Level FlightAware ADS-B
Mon 07:26:37 PM 38.8680 6.0780 171° South 438 504 37,000  Level FlightAware ADS-B
Mon 07:27:22 PM 38.7900 6.0950 170° South 438 504 37,000  Level FlightAware ADS-B
Mon 07:28:02 PM 38.6970 6.1150 170° South 439 505 37,000  Level FlightAware ADS-B
Mon 07:28:37 PM 38.6290 6.1290 171° South 440 506 37,000  Level FlightAware ADS-B
Mon 07:29:22 PM 38.5500 6.1470 170° South 440 506 37,000  Level FlightAware ADS-B
Mon 07:30:02 PM 38.4820 6.1620 170° South 440 506 37,000  Level FlightAware ADS-B
Mon 07:30:52 PM 38.3970 6.1810 170° South 440 506 37,000  Level FlightAware ADS-B
Mon 07:31:32 PM 38.3290 6.1970 170° South 440 506 37,000  Level FlightAware ADS-B
Mon 07:32:12 PM 38.1900 6.2210 172° South 438 504 37,000  Level FlightAware ADS-B
Mon 07:33:07 PM 38.0930 6.2420 170° South 438 504 37,000  Level FlightAware ADS-B
Mon 07:33:52 PM 37.9970 6.2630 170° South 438 504 37,000  Level FlightAware ADS-B
Mon 07:34:32 PM 37.9290 6.2780 170° South 438 504 37,000  Level FlightAware ADS-B
Mon 07:35:12 PM 37.8610 6.2930 170° South 438 504 37,000  Level FlightAware ADS-B
Mon 07:35:52 PM 37.7930 6.3080 170° South 438 504 37,000  Level FlightAware ADS-B
Mon 07:36:42 PM 37.7080 6.3270 170° South 438 504 37,000  Level FlightAware ADS-B
Mon 07:37:22 PM 37.6410 6.3420 170° South 438 504 37,000  Level FlightAware ADS-B
Mon 07:38:02 PM 37.5730 6.3570 170° South 438 504 37,000  Level FlightAware ADS-B
Mon 07:38:42 PM 37.5050 6.3720 170° South 438 504 37,000  Level FlightAware ADS-B
Mon 07:39:22 PM 37.4370 6.3870 170° South 438 504 37,000  Level FlightAware ADS-B
Mon 07:40:12 PM 37.3520 6.4060 170° South 438 504 37,000  Level FlightAware ADS-B
Mon 07:40:52 PM 37.2840 6.4210 170° South 438 504 37,000  Level FlightAware ADS-B
Mon 07:41:32 PM 37.2170 6.4360 170° South 438 504 37,000  Level FlightAware ADS-B
Mon 07:42:12 PM 37.1490 6.4510 170° South 438 504 37,000  Level FlightAware ADS-B
Mon 07:42:52 PM 37.0810 6.4660 170° South 438 504 37,000 Level FlightAware ADS-B
Mon 07:45:00 PM 36.8346 6.5860 159° South  Level Estimated
Mon 07:46:00 PM 36.7191 6.6420 159° South  Level Estimated
Mon 07:47:00 PM 36.6035 6.6979 159° South  Level Estimated
Mon 07:48:00 PM 36.4879 6.7535 159° South  Level Estimated
Mon 07:49:00 PM 36.3723 6.8090 159° South  Level Estimated
Mon 07:50:00 PM 36.2567 6.8643 159° South  Level Estimated
Mon 07:51:00 PM 36.1410 6.9195 159° South  Level Estimated
Mon 07:52:00 PM 36.0253 6.9745 159° South  Level Estimated
Mon 07:53:00 PM 35.9096 7.0294 159° South  Level Estimated
Mon 07:54:00 PM 35.7938 7.0841 159° South  Level Estimated
Mon 07:55:00 PM 35.6781 7.1386 159° South  Level Estimated
Mon 07:56:00 PM 35.5623 7.1929 159° South  Level Estimated
Mon 07:57:00 PM 35.4465 7.2472 159° South  Level Estimated
Mon 07:58:00 PM 35.3306 7.3012 159° South  Level Estimated
Mon 07:59:00 PM 35.2148 7.3551 159° South  Level Estimated
Mon 08:00:00 PM 35.0989 7.4089 159° South  Level Estimated
Mon 08:01:00 PM 34.9830 7.4625 159° South  Level Estimated
Mon 08:02:00 PM 34.8670 7.5159 159° South  Level Estimated
Mon 08:03:00 PM 34.7511 7.5692 159° South  Level Estimated
Mon 08:04:00 PM 34.6351 7.6223 159° South  Level Estimated
Mon 08:05:00 PM 34.5191 7.6753 159° South  Level Estimated
Mon 08:06:00 PM 34.4030 7.7282 159° South  Level Estimated
Mon 08:07:00 PM 34.2870 7.7809 159° South  Level Estimated
Mon 08:08:00 PM 34.1709 7.8334 159° South  Level Estimated
Mon 08:09:00 PM 34.0548 7.8858 159° South  Level Estimated
Mon 08:10:00 PM 33.9387 7.9381 160° South  Level Estimated
Mon 08:11:00 PM 33.8226 7.9902 160° South  Level Estimated
Mon 08:12:00 PM 33.7064 8.0422 160° South  Level Estimated
Mon 08:13:00 PM 33.5902 8.0940 160° South  Level Estimated
Mon 08:14:00 PM 33.4740 8.1457 160° South  Level Estimated
Mon 08:15:00 PM 33.3578 8.1973 160° South  Level Estimated
Mon 08:16:00 PM 33.2416 8.2487 160° South  Level Estimated
Mon 08:17:00 PM 33.1253 8.3000 160° South  Level Estimated
Mon 08:18:00 PM 33.0090 8.3512 160° South  Level Estimated
Mon 08:19:00 PM 32.8927 8.4022 160° South  Level Estimated
Mon 08:20:00 PM 32.7763 8.4531 160° South  Level Estimated
Mon 08:21:00 PM 32.6600 8.5038 160° South  Level Estimated
Mon 08:22:00 PM 32.5436 8.5544 160° South  Level Estimated
Mon 08:23:00 PM 32.4272 8.6049 160° South  Level Estimated
Mon 08:24:00 PM 32.3108 8.6553 160° South  Level Estimated
Mon 08:25:00 PM 32.1944 8.7055 160° South  Level Estimated
Mon 08:26:00 PM 32.0779 8.7556 160° South  Level Estimated
Mon 08:27:00 PM 31.9615 8.8056 160° South  Level Estimated
Mon 08:28:00 PM 31.8450 8.8554 160° South  Level Estimated
Mon 08:29:00 PM 31.7285 8.9052 160° South  Level Estimated
Mon 08:30:00 PM 31.6119 8.9548 160° South  Level Estimated
Mon 08:31:00 PM 31.4954 9.0042 160° South  Level Estimated
Mon 08:32:00 PM 31.3788 9.0536 160° South  Level Estimated
Mon 08:33:00 PM 31.2622 9.1028 160° South  Level Estimated
Mon 08:34:00 PM 31.1456 9.1519 160° South  Level Estimated
Mon 08:35:00 PM 31.0290 9.2009 160° South  Level Estimated
Mon 08:36:00 PM 30.9124 9.2498 160° South  Level Estimated
Mon 08:37:00 PM 30.7957 9.2985 160° South  Level Estimated
Mon 08:38:00 PM 30.6790 9.3472 160° South  Level Estimated
Mon 08:39:00 PM 30.5623 9.3957 160° South  Level Estimated
Mon 08:40:00 PM 30.4456 9.4441 160° South  Level Estimated
Mon 08:41:00 PM 30.3289 9.4924 160° South  Level Estimated
Mon 08:42:00 PM 30.2122 9.5405 160° South  Level Estimated
Mon 08:43:00 PM 30.0954 9.5886 160° South  Level Estimated
Mon 08:44:00 PM 29.9786 9.6365 160° South  Level Estimated
Mon 08:45:00 PM 29.8618 9.6843 160° South  Level Estimated
Mon 08:46:00 PM 29.7450 9.7320 160° South  Level Estimated
Mon 08:47:00 PM 29.6281 9.7796 160° South  Level Estimated
Mon 08:48:00 PM 29.5113 9.8271 161° South  Level Estimated
Mon 08:49:00 PM 29.3944 9.8745 161° South  Level Estimated
Mon 08:50:00 PM 29.2775 9.9218 161° South  Level Estimated
Mon 08:51:00 PM 29.1606 9.9689 161° South  Level Estimated
Mon 08:52:00 PM 29.0437 10.0160 161° South  Level Estimated
Mon 08:53:00 PM 28.9268 10.0630 161° South  Level Estimated
Mon 08:54:00 PM 28.8098 10.1098 161° South  Level Estimated
Mon 08:55:00 PM 28.6928 10.1565 161° South  Level Estimated
Mon 08:56:00 PM 28.5758 10.2032 161° South  Level Estimated
Mon 08:57:00 PM 28.4589 10.2497 161° South  Level Estimated
Mon 08:58:00 PM 28.3418 10.2961 161° South  Level Estimated
Mon 08:59:00 PM 28.2248 10.3425 161° South  Level Estimated
Mon 09:00:00 PM 28.1077 10.3887 161° South  Level Estimated
Mon 09:01:00 PM 27.9907 10.4348 161° South  Level Estimated
Mon 09:02:00 PM 27.8736 10.4808 161° South  Level Estimated
Mon 09:03:00 PM 27.7565 10.5268 161° South  Level Estimated
Mon 09:04:00 PM 27.6394 10.5726 161° South  Level Estimated
Mon 09:05:00 PM 27.5223 10.6183 161° South  Level Estimated
Mon 09:06:00 PM 27.4051 10.6640 161° South  Level Estimated
Mon 09:07:00 PM 27.2880 10.7095 161° South  Level Estimated
Mon 09:08:00 PM 27.1708 10.7549 161° South  Level Estimated
Mon 09:09:00 PM 27.0536 10.8003 161° South  Level Estimated
Mon 09:10:00 PM 26.9364 10.8455 161° South  Level Estimated
Mon 09:11:00 PM 26.8192 10.8907 161° South  Level Estimated
Mon 09:12:00 PM 26.7020 10.9357 161° South  Level Estimated
Mon 09:13:00 PM 26.5848 10.9807 161° South  Level Estimated
Mon 09:14:00 PM 26.4675 11.0256 161° South  Level Estimated
Mon 09:15:00 PM 26.3503 11.0704 161° South  Level Estimated
Mon 09:16:00 PM 26.2330 11.1151 161° South  Level Estimated
Mon 09:17:00 PM 26.1157 11.1597 161° South  Level Estimated
Mon 09:18:00 PM 25.9984 11.2042 161° South  Level Estimated
Mon 09:19:00 PM 25.8810 11.2486 161° South  Level Estimated
Mon 09:20:00 PM 25.7637 11.2929 161° South  Level Estimated
Mon 09:21:00 PM 25.6464 11.3372 161° South  Level Estimated
Mon 09:22:00 PM 25.5290 11.3814 161° South  Level Estimated
Mon 09:23:00 PM 25.4116 11.4254 161° South  Level Estimated
Mon 09:24:00 PM 25.2942 11.4694 161° South  Level Estimated
Mon 09:25:00 PM 25.1768 11.5133 161° South  Level Estimated
Mon 09:26:00 PM 25.0594 11.5572 161° South  Level Estimated
Mon 09:27:00 PM 24.9420 11.6009 161° South  Level Estimated
Mon 09:28:00 PM 24.8245 11.6446 161° South  Level Estimated
Mon 09:29:00 PM 24.7071 11.6881 161° South  Level Estimated
Mon 09:30:00 PM 24.5896 11.7316 161° South  Level Estimated
Mon 09:31:00 PM 24.4721 11.7750 161° South  Level Estimated
Mon 09:32:00 PM 24.3546 11.8183 161° South  Level Estimated
Mon 09:33:00 PM 24.2371 11.8616 161° South  Level Estimated
Mon 09:34:00 PM 24.1196 11.9048 161° South  Level Estimated
Mon 09:35:00 PM 24.0021 11.9479 161° South  Level Estimated
Mon 09:36:00 PM 23.8846 11.9909 162° South  Level Estimated
Mon 09:37:00 PM 23.7670 12.0338 162° South  Level Estimated
Mon 09:38:00 PM 23.6494 12.0766 162° South  Level Estimated
Mon 09:39:00 PM 23.5319 12.1194 162° South  Level Estimated
Mon 09:40:00 PM 23.4143 12.1621 162° South  Level Estimated
Mon 09:41:00 PM 23.2967 12.2048 162° South  Level Estimated
Mon 09:42:00 PM 23.1791 12.2473 162° South  Level Estimated
Mon 09:43:00 PM 23.0614 12.2898 162° South  Level Estimated
Mon 09:44:00 PM 22.9438 12.3322 162° South  Level Estimated
Mon 09:45:00 PM 22.8262 12.3745 162° South  Level Estimated
Mon 09:46:00 PM 22.7085 12.4167 162° South  Level Estimated
Mon 09:47:00 PM 22.5908 12.4589 162° South  Level Estimated
Mon 09:48:00 PM 22.4732 12.5010 162° South  Level Estimated
Mon 09:49:00 PM 22.3555 12.5431 162° South  Level Estimated
Mon 09:50:00 PM 22.2378 12.5850 162° South  Level Estimated
Mon 09:51:00 PM 22.1201 12.6270 162° South  Level Estimated
Mon 09:52:00 PM 22.0023 12.6688 162° South  Level Estimated
Mon 09:53:00 PM 21.8846 12.7105 162° South  Level Estimated
Mon 09:54:00 PM 21.7669 12.7522 162° South  Level Estimated
Mon 09:55:00 PM 21.6491 12.7938 162° South  Level Estimated
Mon 09:56:00 PM 21.5314 12.8354 162° South  Level Estimated
Mon 09:57:00 PM 21.4136 12.8769 162° South  Level Estimated
Mon 09:58:00 PM 21.2958 12.9183 162° South  Level Estimated
Mon 09:59:00 PM 21.1780 12.9597 162° South  Level Estimated
Mon 10:00:00 PM 21.0602 13.0009 162° South  Level Estimated
Mon 10:01:00 PM 20.9424 13.0422 162° South  Level Estimated
Mon 10:02:00 PM 20.8246 13.0833 162° South  Level Estimated
Mon 10:03:00 PM 20.7068 13.1244 162° South  Level Estimated
Mon 10:04:00 PM 20.5889 13.1654 162° South  Level Estimated
Mon 10:05:00 PM 20.4711 13.2064 162° South  Level Estimated
Mon 10:06:00 PM 20.3532 13.2473 162° South  Level Estimated
Mon 10:07:00 PM 20.2353 13.2881 162° South  Level Estimated
Mon 10:08:00 PM 20.1175 13.3289 162° South  Level Estimated
Mon 10:09:00 PM 19.9996 13.3696 162° South  Level Estimated
Mon 10:10:00 PM 19.8817 13.4103 162° South  Level Estimated
Mon 10:11:00 PM 19.7638 13.4509 162° South  Level Estimated
Mon 10:12:00 PM 19.6458 13.4914 162° South  Level Estimated
Mon 10:13:00 PM 19.5279 13.5319 162° South  Level Estimated
Mon 10:14:00 PM 19.4100 13.5723 162° South  Level Estimated
Mon 10:15:00 PM 19.2920 13.6127 162° South  Level Estimated
Mon 10:16:00 PM 19.1741 13.6530 162° South  Level Estimated
Mon 10:17:00 PM 19.0561 13.6932 162° South  Level Estimated
Mon 10:18:00 PM 18.9381 13.7334 162° South  Level Estimated
Mon 10:19:00 PM 18.8202 13.7735 162° South  Level Estimated
Mon 10:20:00 PM 18.7022 13.8136 162° South  Level Estimated
Mon 10:21:00 PM 18.5842 13.8536 162° South  Level Estimated
Mon 10:22:00 PM 18.4662 13.8936 162° South  Level Estimated
Mon 10:23:00 PM 18.3482 13.9335 162° South  Level Estimated
Mon 10:24:00 PM 18.2301 13.9733 162° South  Level Estimated
Mon 10:25:00 PM 18.1121 14.0131 162° South  Level Estimated
Mon 10:26:00 PM 17.9941 14.0528 162° South  Level Estimated
Mon 10:27:00 PM 17.8760 14.0925 162° South  Level Estimated
Mon 10:28:00 PM 17.7580 14.1322 162° South  Level Estimated
Mon 10:29:00 PM 17.6399 14.1718 162° South  Level Estimated
Mon 10:30:00 PM 17.5218 14.2113 162° South  Level Estimated
Mon 10:31:00 PM 17.4037 14.2508 162° South  Level Estimated
Mon 10:32:00 PM 17.2857 14.2902 162° South  Level Estimated
Mon 10:33:00 PM 17.1676 14.3296 162° South  Level Estimated
Mon 10:34:00 PM 17.0495 14.3689 162° South  Level Estimated
Mon 10:35:00 PM 16.9314 14.4082 162° South  Level Estimated
Mon 10:36:00 PM 16.8132 14.4474 162° South  Level Estimated
Mon 10:37:00 PM 16.6951 14.4866 162° South  Level Estimated
Mon 10:38:00 PM 16.5770 14.5257 162° South  Level Estimated
Mon 10:39:00 PM 16.4589 14.5648 162° South  Level Estimated
Mon 10:40:00 PM 16.3407 14.6039 162° South  Level Estimated
Mon 10:41:00 PM 16.2225 14.6428 162° South  Level Estimated
Mon 10:42:00 PM 16.1044 14.6818 162° South  Level Estimated
Mon 10:43:00 PM 15.9862 14.7207 162° South  Level Estimated
Mon 10:44:00 PM 15.8680 14.7595 162° South  Level Estimated
Mon 10:45:00 PM 15.7499 14.7984 162° South  Level Estimated
Mon 10:46:00 PM 15.6317 14.8371 162° South  Level Estimated
Mon 10:47:00 PM 15.5135 14.8758 162° South  Level Estimated
Mon 10:48:00 PM 15.3953 14.9145 162° South  Level Estimated
Mon 10:49:00 PM 15.2771 14.9531 163° South  Level Estimated
Mon 10:50:00 PM 15.1589 14.9917 163° South  Level Estimated
Mon 10:51:00 PM 15.0407 15.0302 163° South  Level Estimated
Mon 10:52:00 PM 14.9224 15.0688 163° South  Level Estimated
Mon 10:53:00 PM 14.8042 15.1072 163° South  Level Estimated
Mon 10:54:00 PM 14.6860 15.1456 163° South  Level Estimated
Mon 10:55:00 PM 14.5677 15.1840 163° South  Level Estimated
Mon 10:56:00 PM 14.4494 15.2223 163° South  Level Estimated
Mon 10:57:00 PM 14.3312 15.2606 163° South  Level Estimated
Mon 10:58:00 PM 14.2129 15.2989 163° South  Level Estimated
Mon 10:59:00 PM 14.0947 15.3371 163° South  Level Estimated
Mon 11:00:00 PM 13.9764 15.3752 163° South  Level Estimated
Mon 11:01:00 PM 13.8581 15.4134 163° South  Level Estimated
Mon 11:02:00 PM 13.7398 15.4515 163° South  Level Estimated
Mon 11:03:00 PM 13.6215 15.4895 163° South  Level Estimated
Mon 11:04:00 PM 13.5032 15.5275 163° South  Level Estimated
Mon 11:05:00 PM 13.3849 15.5655 163° South  Level Estimated
Mon 11:06:00 PM 13.2666 15.6034 163° South  Level Estimated
Mon 11:07:00 PM 13.1483 15.6413 163° South  Level Estimated
Mon 11:08:00 PM 13.0299 15.6792 163° South  Level Estimated
Mon 11:09:00 PM 12.9116 15.7170 163° South  Level Estimated
Mon 11:10:00 PM 12.7933 15.7549 163° South  Level Estimated
Mon 11:11:00 PM 12.6749 15.7926 163° South  Level Estimated
Mon 11:12:00 PM 12.5566 15.8303 163° South  Level Estimated
Mon 11:13:00 PM 12.4382 15.8680 163° South  Level Estimated
Mon 11:14:00 PM 12.3199 15.9057 163° South  Level Estimated
Mon 11:15:00 PM 12.2015 15.9433 163° South  Level Estimated
Mon 11:16:00 PM 12.0831 15.9809 163° South  Level Estimated
Mon 11:17:00 PM 11.9648 16.0185 163° South  Level Estimated
Mon 11:18:00 PM 11.8464 16.0560 163° South  Level Estimated
Mon 11:19:00 PM 11.7280 16.0935 163° South  Level Estimated
Mon 11:20:00 PM 11.6096 16.1309 163° South  Level Estimated
Mon 11:21:00 PM 11.4912 16.1684 163° South  Level Estimated
Mon 11:22:00 PM 11.3728 16.2058 163° South  Level Estimated
Mon 11:23:00 PM 11.2544 16.2431 163° South  Level Estimated
Mon 11:24:00 PM 11.1360 16.2805 163° South  Level Estimated
Mon 11:25:00 PM 11.0176 16.3178 163° South  Level Estimated
Mon 11:26:00 PM 10.8992 16.3550 163° South  Level Estimated
Mon 11:27:00 PM 10.7808 16.3923 163° South  Level Estimated
Mon 11:28:00 PM 10.6624 16.4295 163° South  Level Estimated
Mon 11:29:00 PM 10.5440 16.4667 163° South  Level Estimated
Mon 11:30:00 PM 10.4255 16.5038 163° South  Level Estimated
Mon 11:31:00 PM 10.3071 16.5409 163° South  Level Estimated
Mon 11:32:00 PM 10.1886 16.5780 163° South  Level Estimated
Mon 11:33:00 PM 10.0702 16.6151 163° South  Level Estimated
Mon 11:34:00 PM 9.9517 16.6522 163° South  Level Estimated
Mon 11:35:00 PM 9.8333 16.6892 163° South  Level Estimated
Mon 11:36:00 PM 9.7148 16.7262 163° South  Level Estimated
Mon 11:37:00 PM 9.5964 16.7631 163° South  Level Estimated
Mon 11:38:00 PM 9.4779 16.8001 163° South  Level Estimated
Mon 11:39:00 PM 9.3595 16.8370 163° South  Level Estimated
Mon 11:40:00 PM 9.2410 16.8739 163° South  Level Estimated
Mon 11:41:00 PM 9.1225 16.9107 163° South  Level Estimated
Mon 11:42:00 PM 9.0040 16.9476 163° South  Level Estimated
Mon 11:43:00 PM 8.8855 16.9844 163° South  Level Estimated
Mon 11:44:00 PM 8.7670 17.0212 163° South  Level Estimated
Mon 11:45:00 PM 8.6486 17.0580 163° South  Level Estimated
Mon 11:46:00 PM 8.5301 17.0947 163° South  Level Estimated
Mon 11:47:00 PM 8.4116 17.1314 163° South  Level Estimated
Mon 11:48:00 PM 8.2931 17.1681 163° South  Level Estimated
Mon 11:49:00 PM 8.1746 17.2048 163° South  Level Estimated
Mon 11:50:00 PM 8.0561 17.2415 163° South  Level Estimated
Mon 11:51:00 PM 7.9376 17.2781 163° South  Level Estimated
Mon 11:52:00 PM 7.8190 17.3147 163° South  Level Estimated
Mon 11:53:00 PM 7.7005 17.3513 163° South  Level Estimated
Mon 11:54:00 PM 7.5820 17.3879 163° South  Level Estimated
Mon 11:55:00 PM 7.4635 17.4244 163° South  Level Estimated
Mon 11:56:00 PM 7.3450 17.4610 163° South  Level Estimated
Mon 11:57:00 PM 7.2264 17.4975 163° South  Level Estimated
Mon 11:58:00 PM 7.1079 17.5340 163° South  Level Estimated
Mon 11:59:00 PM 6.9894 17.5704 163° South  Level Estimated
Tue 12:00:00 AM 6.8708 17.6069 163° South  Level Estimated
Tue 12:01:00 AM 6.7523 17.6433 163° South  Level Estimated
Tue 12:02:00 AM 6.6337 17.6798 163° South  Level Estimated
Tue 12:03:00 AM 6.5152 17.7162 163° South  Level Estimated
Tue 12:04:00 AM 6.3966 17.7525 163° South  Level Estimated
Tue 12:05:00 AM 6.2781 17.7889 163° South  Level Estimated
Tue 12:06:00 AM 6.1595 17.8253 163° South  Level Estimated
Tue 12:07:00 AM 6.0410 17.8616 163° South  Level Estimated
Tue 12:08:00 AM 5.9224 17.8979 163° South  Level Estimated
Tue 12:09:00 AM 5.8039 17.9342 163° South  Level Estimated
Tue 12:10:00 AM 5.6853 17.9705 163° South  Level Estimated
Tue 12:11:00 AM 5.5667 18.0068 163° South  Level Estimated
Tue 12:12:00 AM 5.4482 18.0430 163° South  Level Estimated
Tue 12:13:00 AM 5.3296 18.0793 163° South  Level Estimated
Tue 12:14:00 AM 5.2110 18.1155 163° South  Level Estimated
Tue 12:15:00 AM 5.0925 18.1517 163° South  Level Estimated
Tue 12:16:00 AM 4.9739 18.1879 163° South  Level Estimated
Tue 12:17:00 AM 4.8553 18.2241 163° South  Level Estimated
Tue 12:18:00 AM 4.7367 18.2603 163° South  Level Estimated
Tue 12:19:00 AM 4.6181 18.2965 163° South  Level Estimated
Tue 12:20:00 AM 4.4995 18.3326 163° South  Level Estimated
Tue 12:21:00 AM 4.3810 18.3688 163° South  Level Estimated
Tue 12:22:00 AM 4.2624 18.4049 163° South  Level Estimated
Tue 12:23:00 AM 4.1438 18.4410 163° South  Level Estimated
Tue 12:24:00 AM 4.0252 18.4771 163° South  Level Estimated
Tue 12:25:00 AM 3.9066 18.5132 163° South  Level Estimated
Tue 12:26:00 AM 3.7880 18.5493 163° South  Level Estimated
Tue 12:27:00 AM 3.6694 18.5854 163° South  Level Estimated
Tue 12:28:00 AM 3.5508 18.6215 163° South  Level Estimated
Tue 12:29:00 AM 3.4322 18.6575 163° South  Level Estimated
Tue 12:30:00 AM 3.3136 18.6936 163° South  Level Estimated
Tue 12:31:00 AM 3.1950 18.7296 163° South  Level Estimated
Tue 12:32:00 AM 3.0764 18.7656 163° South  Level Estimated
Tue 12:33:00 AM 2.9578 18.8017 163° South  Level Estimated
Tue 12:34:00 AM 2.8392 18.8377 163° South  Level Estimated
Tue 12:35:00 AM 2.7206 18.8737 163° South  Level Estimated
Tue 12:36:00 AM 2.6020 18.9097 163° South  Level Estimated
Tue 12:37:00 AM 2.4834 18.9457 163° South  Level Estimated
Tue 12:38:00 AM 2.3648 18.9817 163° South  Level Estimated
Tue 12:39:00 AM 2.2462 19.0177 163° South  Level Estimated
Tue 12:40:00 AM 2.1275 19.0537 163° South  Level Estimated
Tue 12:41:00 AM 2.0089 19.0896 163° South  Level Estimated
Tue 12:42:00 AM 1.8903 19.1256 163° South  Level Estimated
Tue 12:43:00 AM 1.7717 19.1616 163° South  Level Estimated
Tue 12:44:00 AM 1.6531 19.1975 163° South  Level Estimated
Tue 12:45:00 AM 1.5345 19.2335 163° South  Level Estimated
Tue 12:46:00 AM 1.4159 19.2694 163° South  Level Estimated
Tue 12:47:00 AM 1.2973 19.3054 163° South  Level Estimated
Tue 12:48:00 AM 1.1787 19.3413 163° South  Level Estimated
Tue 12:49:00 AM 1.0600 19.3773 163° South  Level Estimated
Tue 12:50:00 AM 0.9414 19.4132 163° South  Level Estimated
Tue 12:51:00 AM 0.8228 19.4491 163° South  Level Estimated
Tue 12:52:00 AM 0.7042 19.4851 163° South  Level Estimated
Tue 12:53:00 AM 0.5856 19.5210 163° South  Level Estimated
Tue 12:54:00 AM 0.4669 19.5569 163° South  Level Estimated
Tue 12:55:00 AM 0.3483 19.5928 163° South  Level Estimated
Tue 12:56:00 AM 0.2297 19.6288 163° South  Level Estimated
Tue 12:57:00 AM 0.1111 19.6647 163° South  Level Estimated
Tue 12:58:00 AM -0.0076 19.7006 163° South  Level Estimated
Tue 12:59:00 AM -0.1262 19.7366 163° South  Level Estimated
Tue 01:00:00 AM -0.2448 19.7725 163° South  Level Estimated
Tue 01:01:00 AM -0.3634 19.8084 163° South  Level Estimated
Tue 01:02:00 AM -0.4820 19.8444 163° South  Level Estimated
Tue 01:03:00 AM -0.6007 19.8803 163° South  Level Estimated
Tue 01:04:00 AM -0.7193 19.9162 163° South  Level Estimated
Tue 01:05:00 AM -0.8379 19.9521 163° South  Level Estimated
Tue 01:06:00 AM -0.9565 19.9881 163° South  Level Estimated
Tue 01:07:00 AM -1.0751 20.0240 163° South  Level Estimated
Tue 01:08:00 AM -1.1938 20.0599 163° South  Level Estimated
Tue 01:09:00 AM -1.3124 20.0959 163° South  Level Estimated
Tue 01:10:00 AM -1.4310 20.1318 163° South  Level Estimated
Tue 01:11:00 AM -1.5496 20.1678 163° South  Level Estimated
Tue 01:12:00 AM -1.6682 20.2037 163° South  Level Estimated
Tue 01:13:00 AM -1.7868 20.2397 163° South  Level Estimated
Tue 01:14:00 AM -1.9054 20.2757 163° South  Level Estimated
Tue 01:15:00 AM -2.0240 20.3116 163° South  Level Estimated
Tue 01:16:00 AM -2.1426 20.3476 163° South  Level Estimated
Tue 01:17:00 AM -2.2613 20.3836 163° South  Level Estimated
Tue 01:18:00 AM -2.3799 20.4196 163° South  Level Estimated
Tue 01:19:00 AM -2.4985 20.4556 163° South  Level Estimated
Tue 01:20:00 AM -2.6171 20.4916 163° South  Level Estimated
Tue 01:21:00 AM -2.7357 20.5276 163° South  Level Estimated
Tue 01:22:00 AM -2.8543 20.5636 163° South  Level Estimated
Tue 01:23:00 AM -2.9729 20.5996 163° South  Level Estimated
Tue 01:24:00 AM -3.0915 20.6356 163° South  Level Estimated
Tue 01:25:00 AM -3.2101 20.6716 163° South  Level Estimated
Tue 01:26:00 AM -3.3287 20.7077 163° South  Level Estimated
Tue 01:27:00 AM -3.4473 20.7437 163° South  Level Estimated
Tue 01:28:00 AM -3.5659 20.7798 163° South  Level Estimated
Tue 01:29:00 AM -3.6845 20.8159 163° South  Level Estimated
Tue 01:30:00 AM -3.8031 20.8519 163° South  Level Estimated
Tue 01:31:00 AM -3.9217 20.8880 163° South  Level Estimated
Tue 01:32:00 AM -4.0403 20.9241 163° South  Level Estimated
Tue 01:33:00 AM -4.1589 20.9603 163° South  Level Estimated
Tue 01:34:00 AM -4.2775 20.9964 163° South  Level Estimated
Tue 01:35:00 AM -4.3960 21.0325 163° South  Level Estimated
Tue 01:36:00 AM -4.5146 21.0686 163° South  Level Estimated
Tue 01:37:00 AM -4.6332 21.1048 163° South  Level Estimated
Tue 01:38:00 AM -4.7518 21.1410 163° South  Level Estimated
Tue 01:39:00 AM -4.8704 21.1772 163° South  Level Estimated
Tue 01:40:00 AM -4.9889 21.2133 163° South  Level Estimated
Tue 01:41:00 AM -5.1075 21.2495 163° South  Level Estimated
Tue 01:42:00 AM -5.2261 21.2858 163° South  Level Estimated
Tue 01:43:00 AM -5.3447 21.3220 163° South  Level Estimated
Tue 01:44:00 AM -5.4632 21.3582 163° South  Level Estimated
Tue 01:45:00 AM -5.5818 21.3945 163° South  Level Estimated
Tue 01:46:00 AM -5.7004 21.4308 163° South  Level Estimated
Tue 01:47:00 AM -5.8189 21.4671 163° South  Level Estimated
Tue 01:48:00 AM -5.9375 21.5034 163° South  Level Estimated
Tue 01:49:00 AM -6.0560 21.5397 163° South  Level Estimated
Tue 01:50:00 AM -6.1746 21.5760 163° South  Level Estimated
Tue 01:51:00 AM -6.2932 21.6124 163° South  Level Estimated
Tue 01:52:00 AM -6.4117 21.6488 163° South  Level Estimated
Tue 01:53:00 AM -6.5303 21.6852 163° South  Level Estimated
Tue 01:54:00 AM -6.6488 21.7216 163° South  Level Estimated
Tue 01:55:00 AM -6.7674 21.7580 163° South  Level Estimated
Tue 01:56:00 AM -6.8859 21.7944 163° South  Level Estimated
Tue 01:57:00 AM -7.0044 21.8309 163° South  Level Estimated
Tue 01:58:00 AM -7.1230 21.8674 163° South  Level Estimated
Tue 01:59:00 AM -7.2415 21.9039 163° South  Level Estimated
Tue 02:00:00 AM -7.3600 21.9404 163° South  Level Estimated
Tue 02:01:00 AM -7.4785 21.9769 163° South  Level Estimated
Tue 02:02:00 AM -7.5971 22.0135 163° South  Level Estimated
Tue 02:03:00 AM -7.7156 22.0501 163° South  Level Estimated
Tue 02:04:00 AM -7.8341 22.0867 163° South  Level Estimated
Tue 02:05:00 AM -7.9526 22.1233 163° South  Level Estimated
Tue 02:06:00 AM -8.0711 22.1599 163° South  Level Estimated
Tue 02:07:00 AM -8.1896 22.1966 163° South  Level Estimated
Tue 02:08:00 AM -8.3081 22.2333 163° South  Level Estimated
Tue 02:09:00 AM -8.4266 22.2700 163° South  Level Estimated
Tue 02:10:00 AM -8.5451 22.3067 163° South  Level Estimated
Tue 02:11:00 AM -8.6636 22.3435 163° South  Level Estimated
Tue 02:12:00 AM -8.7821 22.3802 163° South  Level Estimated
Tue 02:13:00 AM -8.9006 22.4170 163° South  Level Estimated
Tue 02:14:00 AM -9.0191 22.4538 163° South  Level Estimated
Tue 02:15:00 AM -9.1376 22.4907 163° South  Level Estimated
Tue 02:16:00 AM -9.2561 22.5275 163° South  Level Estimated
Tue 02:17:00 AM -9.3745 22.5644 163° South  Level Estimated
Tue 02:18:00 AM -9.4930 22.6014 163° South  Level Estimated
Tue 02:19:00 AM -9.6115 22.6383 163° South  Level Estimated
Tue 02:20:00 AM -9.7299 22.6753 163° South  Level Estimated
Tue 02:21:00 AM -9.8484 22.7123 163° South  Level Estimated
Tue 02:22:00 AM -9.9668 22.7493 163° South  Level Estimated
Tue 02:23:00 AM -10.0853 22.7863 163° South  Level Estimated
Tue 02:24:00 AM -10.2037 22.8234 163° South  Level Estimated
Tue 02:25:00 AM -10.3222 22.8605 163° South  Level Estimated
Tue 02:26:00 AM -10.4406 22.8976 163° South  Level Estimated
Tue 02:27:00 AM -10.5590 22.9348 163° South  Level Estimated
Tue 02:28:00 AM -10.6775 22.9720 163° South  Level Estimated
Tue 02:29:00 AM -10.7959 23.0092 163° South  Level Estimated
Tue 02:30:00 AM -10.9143 23.0465 163° South  Level Estimated
Tue 02:31:00 AM -11.0327 23.0837 163° South  Level Estimated
Tue 02:32:00 AM -11.1511 23.1211 163° South  Level Estimated
Tue 02:33:00 AM -11.2695 23.1584 163° South  Level Estimated
Tue 02:34:00 AM -11.3879 23.1958 163° South  Level Estimated
Tue 02:35:00 AM -11.5063 23.2332 163° South  Level Estimated
Tue 02:36:00 AM -11.6247 23.2706 163° South  Level Estimated
Tue 02:37:00 AM -11.7431 23.3081 163° South  Level Estimated
Tue 02:38:00 AM -11.8615 23.3456 163° South  Level Estimated
Tue 02:39:00 AM -11.9798 23.3831 163° South  Level Estimated
Tue 02:40:00 AM -12.0982 23.4206 163° South  Level Estimated
Tue 02:41:00 AM -12.2166 23.4582 163° South  Level Estimated
Tue 02:42:00 AM -12.3349 23.4959 163° South  Level Estimated
Tue 02:43:00 AM -12.4533 23.5335 163° South  Level Estimated
Tue 02:44:00 AM -12.5716 23.5712 163° South  Level Estimated
Tue 02:45:00 AM -12.6900 23.6089 163° South  Level Estimated
Tue 02:46:00 AM -12.8083 23.6467 163° South  Level Estimated
Tue 02:47:00 AM -12.9267 23.6845 163° South  Level Estimated
Tue 02:48:00 AM -13.0450 23.7224 163° South  Level Estimated
Tue 02:49:00 AM -13.1633 23.7602 163° South  Level Estimated
Tue 02:50:00 AM -13.2816 23.7981 163° South  Level Estimated
Tue 02:51:00 AM -13.3999 23.8361 163° South  Level Estimated
Tue 02:52:00 AM -13.5183 23.8741 163° South  Level Estimated
Tue 02:53:00 AM -13.6365 23.9121 163° South  Level Estimated
Tue 02:54:00 AM -13.7548 23.9501 163° South  Level Estimated
Tue 02:55:00 AM -13.8731 23.9883 163° South  Level Estimated
Tue 02:56:00 AM -13.9914 24.0264 163° South  Level Estimated
Tue 02:57:00 AM -14.1097 24.0646 163° South  Level Estimated
Tue 02:58:00 AM -14.2280 24.1028 163° South  Level Estimated
Tue 02:59:00 AM -14.3462 24.1411 163° South  Level Estimated
Tue 03:00:00 AM -14.4645 24.1793 163° South  Level Estimated
Tue 03:01:00 AM -14.5827 24.2177 163° South  Level Estimated
Tue 03:02:00 AM -14.7010 24.2561 163° South  Level Estimated
Tue 03:03:00 AM -14.8192 24.2945 163° South  Level Estimated
Tue 03:04:00 AM -14.9375 24.3330 163° South  Level Estimated
Tue 03:05:00 AM -15.0557 24.3715 163° South  Level Estimated
Tue 03:06:00 AM -15.1739 24.4100 163° South  Level Estimated
Tue 03:07:00 AM -15.2921 24.4486 163° South  Level Estimated
Tue 03:08:00 AM -15.4103 24.4872 163° South  Level Estimated
Tue 03:09:00 AM -15.5285 24.5259 163° South  Level Estimated
Tue 03:10:00 AM -15.6467 24.5646 162° South  Level Estimated
Tue 03:11:00 AM -15.7649 24.6034 162° South  Level Estimated
Tue 03:12:00 AM -15.8831 24.6422 162° South  Level Estimated
Tue 03:13:00 AM -16.0012 24.6811 162° South  Level Estimated
Tue 03:14:00 AM -16.1194 24.7200 162° South  Level Estimated
Tue 03:15:00 AM -16.2376 24.7589 162° South  Level Estimated
Tue 03:16:00 AM -16.3557 24.7979 162° South  Level Estimated
Tue 03:17:00 AM -16.4739 24.8370 162° South  Level Estimated
Tue 03:18:00 AM -16.5920 24.8760 162° South  Level Estimated
Tue 03:19:00 AM -16.7101 24.9152 162° South  Level Estimated
Tue 03:20:00 AM -16.8283 24.9544 162° South  Level Estimated
Tue 03:21:00 AM -16.9464 24.9936 162° South  Level Estimated
Tue 03:22:00 AM -17.0645 25.0329 162° South  Level Estimated
Tue 03:23:00 AM -17.1826 25.0722 162° South  Level Estimated
Tue 03:24:00 AM -17.3007 25.1116 162° South  Level Estimated
Tue 03:25:00 AM -17.4188 25.1511 162° South  Level Estimated
Tue 03:26:00 AM -17.5369 25.1906 162° South  Level Estimated
Tue 03:27:00 AM -17.6549 25.2301 162° South  Level Estimated
Tue 03:28:00 AM -17.7730 25.2697 162° South  Level Estimated
Tue 03:29:00 AM -17.8910 25.3093 162° South  Level Estimated
Tue 03:30:00 AM -18.0091 25.3490 162° South  Level Estimated
Tue 03:31:00 AM -18.1271 25.3888 162° South  Level Estimated
Tue 03:31:37 AM -23.3270 26.2680 162° South 496 571 39,000  Level FlightAware ADS-B
Tue 03:32:00 AM -18.2452 25.4286 162° South  Level Estimated
Tue 03:32:22 AM -23.4110 26.3090 156° South 496 571 39,000  Level FlightAware ADS-B
Tue 03:33:07 AM -23.5210 26.3590 157° South 497 572 39,000  Level FlightAware ADS-B
Tue 03:33:52 AM -23.6160 26.4030 157° South 497 572 39,000  Level FlightAware ADS-B
Tue 03:34:32 AM -23.7010 26.4430 157° South 495 570 39,000  Level FlightAware ADS-B
Tue 03:35:17 AM -23.7970 26.4880 157° South 493 567 39,000  Level FlightAware ADS-B
Tue 03:35:57 AM -23.8810 26.5270 157° South 492 566 39,000  Level FlightAware ADS-B
Tue 03:36:42 AM -23.9730 26.5700 157° South 492 566 39,000  Level FlightAware ADS-B
Tue 03:37:22 AM -24.0570 26.6100 157° South 494 568 39,000  Level FlightAware ADS-B
Tue 03:38:02 AM -24.1420 26.6500 157° South 493 567 39,000  Level FlightAware ADS-B
Tue 03:38:47 AM -24.2350 26.6940 157° South 493 567 39,000  Level FlightAware ADS-B
Tue 03:39:27 AM -24.3150 26.7430 151° Southeast 501 577 39,000  Level FlightAware ADS-B
Tue 03:40:07 AM -24.3940 26.8050 144° Southeast 501 577 39,000  Level FlightAware ADS-B
Tue 03:40:52 AM -24.4830 26.8490 156° South 483 556 39,000 -212 Level FlightAware ADS-B
Tue 03:41:32 AM -24.5660 26.8890 156° South 487 560 38,700 -918 Descending FlightAware ADS-B
Tue 03:42:17 AM -24.6610 26.9340 157° South 481 554 37,700 -1,624 Descending FlightAware ADS-B
Tue 03:42:57 AM -24.7430 26.9740 156° South 478 550 36,400 -2,175 Descending FlightAware ADS-B
Tue 03:43:37 AM -24.8250 27.0130 157° South 488 562 34,800 -2,400 Descending FlightAware ADS-B
Tue 03:44:22 AM -24.9170 27.0560 157° South 486 559 33,000 -2,400 Descending FlightAware ADS-B
Tue 03:45:02 AM -24.9980 27.0960 156° South 478 550 31,400 -2,047 Descending FlightAware ADS-B
Tue 03:45:47 AM -25.0900 27.1400 157° South 462 532 30,100 -1,694 Descending FlightAware ADS-B
Tue 03:46:27 AM -25.1680 27.1770 157° South 448 516 29,000 -1,725 Descending FlightAware ADS-B
Tue 03:47:07 AM -25.2440 27.2140 156° South 436 502 27,800 -1,694 Descending FlightAware ADS-B
Tue 03:47:52 AM -25.3240 27.2520 157° South 428 493 26,600 -1,624 Descending FlightAware ADS-B
Tue 03:48:32 AM -25.3970 27.2870 157° South 424 488 25,500 -1,624 Descending FlightAware ADS-B
Tue 03:49:17 AM -25.4790 27.3270 156° South 419 482 24,300 -1,200 Descending FlightAware ADS-B
Tue 03:49:57 AM -25.5490 27.3610 156° South 394 453 23,800 -600 Descending FlightAware ADS-B
Tue 03:50:37 AM -25.6120 27.3920 156° South 370 426 23,500 -525 Descending FlightAware ADS-B
Tue 03:51:17 AM -25.6730 27.4220 156° South 346 398 23,100 -565 Descending FlightAware ADS-B
Tue 03:52:02 AM -25.7310 27.4640 147° Southeast 345 397 22,700 -847 Descending FlightAware ADS-B
Tue 03:52:42 AM -25.7650 27.5250 122° Southeast 346 398 21,900 -1,200 Descending FlightAware ADS-B
Tue 03:53:27 AM -25.8020 27.5910 122° Southeast 344 396 21,000 -1,200 Descending FlightAware ADS-B
Tue 03:54:07 AM -25.8350 27.6510 121° Southeast 339 390 20,200 -1,200 Descending FlightAware ADS-B
Tue 03:54:52 AM -25.8720 27.7160 122° Southeast 333 383 19,300 -1,200 Descending FlightAware ADS-B
Tue 03:55:32 AM -25.9030 27.7730 121° Southeast 327 376 18,500 -1,200 Descending FlightAware ADS-B
Tue 03:56:12 AM -25.9350 27.8300 122° Southeast 319 367 17,700 -1,129 Descending FlightAware ADS-B
Tue 03:56:57 AM -25.9710 27.8940 122° Southeast 313 360 16,900 -1,129 Descending FlightAware ADS-B
Tue 03:57:37 AM -26.0010 27.9490 121° Southeast 311 358 16,100 -975 Descending FlightAware ADS-B
Tue 03:58:17 AM -26.0300 28.0010 122° Southeast 301 346 15,600 -565 Descending FlightAware ADS-B
Tue 03:59:02 AM -26.0630 28.0600 122° Southeast 274 315 15,300 -429 Descending FlightAware ADS-B
Tue 03:59:27 AM -26.0800 28.0860 126° Southeast 255 293 15,100 -450 Descending FlightAware ADS-B
Tue 03:59:42 AM -26.0950 28.0930 157° South 245 282 15,000 -873 Descending FlightAware ADS-B
Tue 04:00:22 AM -26.1400 28.0970 175° South 244 281 14,300 -988 Descending FlightAware ADS-B
Tue 04:01:07 AM -26.1900 28.0800 197° South 242 278 13,600 -933 Descending FlightAware ADS-B
Tue 04:01:52 AM -26.2390 28.0600 200° South 244 281 12,900 -988 Descending FlightAware ADS-B
Tue 04:02:32 AM -26.2820 28.0430 200° South 252 290 12,200 -1,050 Descending FlightAware ADS-B
Tue 04:03:12 AM -26.3270 28.0260 199° South 251 289 11,500 -988 Descending FlightAware ADS-B
Tue 04:03:57 AM -26.3660 28.0350 168° South 247 284 10,800 -943 Descending FlightAware ADS-B
Tue 04:04:22 AM -26.3900 28.0560 142° Southeast 238 274 10,400 -831 Descending FlightAware ADS-B
Tue 04:05:02 AM -26.4000 28.1010 104° East 209 241 9,900 -943 Descending FlightAware ADS-B
Tue 04:05:32 AM -26.4050 28.1310 101° East 202 232 9,300 -1,300 Descending FlightAware ADS-B
Tue 04:06:02 AM -26.3880 28.1610 58° Northeast 204 235 8,600 -1,309 Descending FlightAware ADS-B
Tue 04:06:27 AM -26.3690 28.1790 40° Northeast 209 241 8,100 -982 Descending FlightAware ADS-B
Tue 04:06:57 AM -26.3420 28.1920 23° Northeast 206 237 7,700 -800 Descending FlightAware ADS-B
Tue 04:07:12 AM -26.3280 28.1970 18° North 208 239 7,500 -450 Descending FlightAware ADS-B
Tue 04:07:37 AM -26.3070 28.2040 17° North 204 235 7,400 -218 Descending FlightAware ADS-B
Tue 04:08:07 AM -26.2790 28.2130 16° North 200 230 7,300 -700 Descending FlightAware ADS-B
Tue 04:08:37 AM -26.2520 28.2210 15° North 201 231 6,700 -1,091 Descending FlightAware ADS-B
Tue 04:09:02 AM -26.2300 28.2280 16° North 184 212 6,300 -982 Descending FlightAware ADS-B
Tue 04:09:32 AM -26.2060 28.2350 15° North 161 185 5,800 -933 Descending FlightAware ADS-B
Tue 04:09:47 AM -26.1960 28.2380 15° North 150 173 5,600 -686 Descending FlightAware ADS-B
Tue 04:10:07 AM -26.1850 28.2420 18° North 146 168 5,400 -655 Descending FlightAware ADS-B
Tue 04:10:42 AM -26.1630 28.2480 14° North 147 169 5,000 -686 Descending FlightAware ADS-B

Login

Don't have an account? Register now (free) for customized features, flight alerts, and more!